Time;durP1;ratioP1;P1;durP2;ratioP2;P2;SDS_P1;SDS_P2;PMS_P1;PMS_P2;Temp;Humidity;BMP_temperature;BMP_pressure;BME280_temperature;BME280_humidity;BME280_pressure;Samples;Min_cycle;Max_cycle;Signal;HPM_P1;HPM_P2
2023/06/25 00:01:35;;;;;;;4.13;3.72;;;23.50;63.30;;;;;;5073594;28;20201;-70
2023/06/25 00:04:01;;;;;;;4.32;3.92;;;23.50;63.30;;;;;;5083834;28;20191;-69
2023/06/25 00:06:27;;;;;;;4.00;3.70;;;23.50;63.20;;;;;;5080184;28;20197;-70
2023/06/25 00:08:53;;;;;;;3.92;3.63;;;23.50;63.20;;;;;;5098847;28;20215;-69
2023/06/25 00:11:19;;;;;;;4.15;3.85;;;23.50;63.20;;;;;;5090367;28;20189;-69
2023/06/25 00:13:45;;;;;;;4.50;4.10;;;23.40;63.20;;;;;;5107019;28;20188;-69
2023/06/25 00:16:11;;;;;;;3.95;3.65;;;23.50;63.30;;;;;;5082883;28;20184;-68
2023/06/25 00:18:36;;;;;;;4.60;4.25;;;23.50;63.30;;;;;;5095518;28;20203;-69
2023/06/25 00:21:03;;;;;;;4.25;3.85;;;23.50;63.20;;;;;;5090435;28;20261;-69
2023/06/25 00:23:29;;;;;;;3.63;3.33;;;23.50;63.20;;;;;;5090933;28;20258;-68
2023/06/25 00:25:55;;;;;;;3.90;3.60;;;23.40;63.10;;;;;;5091246;28;20191;-69
2023/06/25 00:28:20;;;;;;;3.78;3.47;;;23.50;63.20;;;;;;5103448;28;20212;-69
2023/06/25 00:30:46;;;;;;;4.03;3.72;;;23.50;63.20;;;;;;5077344;28;20195;-69
2023/06/25 00:33:12;;;;;;;3.53;3.30;;;23.40;63.10;;;;;;5106554;28;20207;-68
2023/06/25 00:35:49;;;;;;;4.10;3.80;;;23.50;63.30;;;;;;5073907;28;20192;-68
2023/06/25 00:38:15;;;;;;;4.35;4.00;;;23.40;63.20;;;;;;5084851;28;20571;-68
2023/06/25 00:40:42;;;;;;;3.85;3.55;;;23.40;63.20;;;;;;5093622;28;20188;-68
2023/06/25 00:43:07;;;;;;;3.78;3.47;;;23.50;63.30;;;;;;5118009;27;20211;-68
2023/06/25 00:45:34;;;;;;;4.00;3.30;;;23.50;63.30;;;;;;5076647;28;20181;-69
2023/06/25 00:48:01;;;;;;;3.90;3.60;;;23.40;63.20;;;;;;5099320;28;20565;-69
2023/06/25 00:50:28;;;;;;;3.65;3.35;;;23.40;63.30;;;;;;5094140;28;20183;-69
2023/06/25 00:52:57;;;;;;;3.65;3.35;;;23.40;63.20;;;;;;5109475;28;20413;-69
2023/06/25 00:55:23;;;;;;;3.83;3.53;;;23.40;63.20;;;;;;5077876;28;20381;-69
2023/06/25 00:57:51;;;;;;;3.88;3.58;;;23.40;63.30;;;;;;5077196;28;20184;-69
2023/06/25 01:00:18;;;;;;;3.67;3.38;;;23.40;63.20;;;;;;5102677;28;20188;-68
2023/06/25 01:03:12;;;;;;;3.90;3.60;;;23.40;63.30;;;;;;5076856;28;20201;-69
2023/06/25 01:05:51;;;;;;;4.05;3.72;;;23.40;63.20;;;;;;5098427;28;20250;-68
2023/06/25 01:08:19;;;;;;;3.72;3.42;;;23.40;63.20;;;;;;5085826;28;20282;-69
2023/06/25 01:10:45;;;;;;;3.65;3.35;;;23.40;63.20;;;;;;5093419;28;20184;-68
2023/06/25 01:13:10;;;;;;;4.20;3.88;;;23.40;63.20;;;;;;5073742;28;20205;-69
2023/06/25 01:15:36;;;;;;;3.90;3.60;;;23.40;63.30;;;;;;5091269;28;20662;-69
2023/06/25 01:18:03;;;;;;;3.70;3.40;;;23.40;63.30;;;;;;5074136;28;20196;-69
2023/06/25 01:20:29;;;;;;;3.80;3.50;;;23.40;63.20;;;;;;5101862;28;20563;-69
2023/06/25 01:22:57;;;;;;;3.88;3.58;;;23.40;63.20;;;;;;5084063;28;20204;-69
2023/06/25 01:25:24;;;;;;;3.85;3.55;;;23.40;63.20;;;;;;5099551;28;20261;-68
2023/06/25 01:27:50;;;;;;;4.03;3.72;;;23.40;63.30;;;;;;5106609;28;20280;-69
2023/06/25 01:30:17;;;;;;;3.70;3.40;;;23.40;63.20;;;;;;5099972;28;20204;-69
2023/06/25 01:32:46;;;;;;;3.63;3.33;;;23.40;63.30;;;;;;5100215;28;20212;-69
2023/06/25 01:35:15;;;;;;;3.60;3.40;;;23.40;63.20;;;;;;5094398;28;20632;-69
2023/06/25 01:37:41;;;;;;;3.70;3.40;;;23.30;63.10;;;;;;5085027;28;20189;-69
2023/06/25 01:40:08;;;;;;;3.50;3.20;;;23.40;63.30;;;;;;5076661;28;20188;-69
2023/06/25 01:42:35;;;;;;;4.18;3.88;;;23.30;63.10;;;;;;5081844;28;20200;-69
2023/06/25 01:45:02;;;;;;;3.97;3.67;;;23.40;63.30;;;;;;5104360;28;20715;-69
2023/06/25 01:47:27;;;;;;;3.80;3.50;;;23.40;63.30;;;;;;5076564;28;20177;-69
2023/06/25 01:49:53;;;;;;;3.95;3.65;;;23.30;63.10;;;;;;5100503;28;20235;-68
2023/06/25 01:52:20;;;;;;;4.15;3.78;;;23.30;63.10;;;;;;5075998;28;20296;-69
2023/06/25 01:54:46;;;;;;;4.40;4.00;;;23.30;63.20;;;;;;5092518;28;20215;-69
2023/06/25 01:57:12;;;;;;;3.80;3.50;;;23.30;63.10;;;;;;5096534;28;20193;-69
2023/06/25 01:59:38;;;;;;;4.00;3.72;;;23.30;63.10;;;;;;5121059;27;20268;-69
2023/06/25 02:02:04;;;;;;;3.92;3.63;;;23.30;63.10;;;;;;5099261;28;20315;-69
2023/06/25 02:04:30;;;;;;;4.30;3.90;;;23.30;63.10;;;;;;5106657;28;20235;-69
2023/06/25 02:06:56;;;;;;;4.63;4.22;;;23.40;63.40;;;;;;5092148;28;20213;-69
2023/06/25 02:09:22;;;;;;;4.00;3.70;;;23.30;63.20;;;;;;5080158;28;20213;-69
2023/06/25 02:11:48;;;;;;;3.88;3.58;;;23.30;63.20;;;;;;5096968;28;20197;-69
2023/06/25 02:14:15;;;;;;;3.85;3.45;;;23.30;63.10;;;;;;5078984;28;20192;-68
2023/06/25 02:16:41;;;;;;;3.95;3.65;;;23.30;63.20;;;;;;5096389;28;20282;-68
2023/06/25 02:19:07;;;;;;;3.88;3.58;;;23.30;63.10;;;;;;5128432;27;20191;-68
2023/06/25 02:21:33;;;;;;;3.50;3.20;;;23.30;63.20;;;;;;5075561;28;20197;-68
2023/06/25 02:23:59;;;;;;;3.88;3.58;;;23.30;63.20;;;;;;5109429;28;20199;-68
2023/06/25 02:26:25;;;;;;;3.85;3.55;;;23.30;63.20;;;;;;5093140;28;20185;-69
2023/06/25 02:28:50;;;;;;;3.85;3.55;;;23.40;63.30;;;;;;5075910;28;20299;-68
2023/06/25 02:31:18;;;;;;;3.88;3.58;;;23.30;63.20;;;;;;5077491;28;20185;-68
2023/06/25 02:33:44;;;;;;;3.65;3.35;;;23.30;63.20;;;;;;5087723;28;20267;-68
2023/06/25 02:36:09;;;;;;;3.65;3.35;;;23.30;63.20;;;;;;5100868;28;20276;-68
2023/06/25 02:38:35;;;;;;;3.30;3.10;;;23.30;63.20;;;;;;5081161;28;20286;-68
2023/06/25 02:41:01;;;;;;;3.67;3.38;;;23.30;63.20;;;;;;5102322;28;20275;-69
2023/06/25 02:43:27;;;;;;;3.72;3.42;;;23.30;63.10;;;;;;5091732;28;20208;-68
2023/06/25 02:45:52;;;;;;;3.85;3.55;;;23.30;63.10;;;;;;5109184;28;20214;-68
2023/06/25 02:48:19;;;;;;;3.42;3.13;;;23.30;63.10;;;;;;5083234;28;20189;-68
2023/06/25 02:50:44;;;;;;;3.47;3.28;;;23.30;63.20;;;;;;5074319;28;20224;-68
2023/06/25 02:53:11;;;;;;;3.45;3.25;;;23.30;63.10;;;;;;5100146;28;20219;-68
2023/06/25 02:55:37;;;;;;;3.90;3.60;;;23.30;63.20;;;;;;5084196;28;20536;-68
2023/06/25 02:58:02;;;;;;;3.60;3.30;;;23.30;63.10;;;;;;5090265;28;20194;-68
2023/06/25 03:00:29;;;;;;;3.60;3.30;;;23.30;64.00;;;;;;5099586;28;20187;-68
2023/06/25 03:02:55;;;;;;;3.65;3.38;;;23.30;63.20;;;;;;5071377;28;20209;-68
2023/06/25 03:05:21;;;;;;;3.70;3.40;;;23.30;63.20;;;;;;5078097;28;20203;-68
2023/06/25 03:07:57;;;;;;;3.67;3.38;;;23.30;63.20;;;;;;5120834;27;20233;-68
2023/06/25 03:10:30;;;;;;;3.72;3.42;;;23.30;63.20;;;;;;5078809;28;20716;-68
2023/06/25 03:12:57;;;;;;;3.58;3.28;;;23.30;63.20;;;;;;5078273;28;20204;-68
2023/06/25 03:15:23;;;;;;;4.03;3.63;;;23.30;63.20;;;;;;5100127;28;20184;-68
2023/06/25 03:17:50;;;;;;;3.80;3.50;;;23.30;63.10;;;;;;5083060;28;20244;-68
2023/06/25 03:20:17;;;;;;;3.40;3.10;;;23.30;63.20;;;;;;5074344;28;20651;-68
2023/06/25 03:22:42;;;;;;;3.45;3.17;;;23.30;63.20;;;;;;5074017;28;20266;-68
2023/06/25 03:25:09;;;;;;;3.80;3.50;;;23.20;63.10;;;;;;5100114;28;20185;-69
2023/06/25 03:27:38;;;;;;;3.33;3.13;;;23.30;63.20;;;;;;5091513;28;20195;-68
2023/06/25 03:30:05;;;;;;;3.78;3.47;;;23.30;63.20;;;;;;5091218;28;20208;-68
2023/06/25 03:32:32;;;;;;;3.35;3.15;;;23.30;63.10;;;;;;5091094;28;20196;-68
2023/06/25 03:34:59;;;;;;;3.70;3.40;;;23.20;63.00;;;;;;5091163;28;20170;-68
2023/06/25 03:37:25;;;;;;;3.55;3.25;;;23.30;63.20;;;;;;5094845;28;20571;-68
2023/06/25 03:39:52;;;;;;;3.70;3.40;;;23.20;63.00;;;;;;5112940;27;20242;-68
2023/06/25 03:42:18;;;;;;;3.70;3.40;;;23.30;63.20;;;;;;5084571;28;20208;-68
2023/06/25 03:44:53;;;;;;;3.38;3.17;;;23.20;63.10;;;;;;5103051;28;20569;-68
2023/06/25 03:47:22;;;;;;;3.38;3.15;;;23.20;63.00;;;;;;5083318;28;20180;-68
2023/06/25 03:49:48;;;;;;;3.45;3.20;;;23.20;63.10;;;;;;5091257;28;20350;-68
2023/06/25 03:52:15;;;;;;;3.97;3.67;;;23.20;63.80;;;;;;5073440;28;20213;-68
2023/06/25 03:54:41;;;;;;;3.45;3.22;;;23.20;63.00;;;;;;5091157;28;20176;-69
2023/06/25 03:57:07;;;;;;;3.35;3.13;;;23.20;63.00;;;;;;5090712;28;20548;-69
2023/06/25 03:59:33;;;;;;;3.85;3.55;;;23.20;63.00;;;;;;5091209;28;20196;-68
2023/06/25 04:01:58;;;;;;;3.70;3.40;;;23.30;63.10;;;;;;5114858;27;20203;-68
2023/06/25 04:04:24;;;;;;;3.60;3.30;;;23.20;63.00;;;;;;5107947;28;20197;-68
2023/06/25 04:06:50;;;;;;;3.75;3.47;;;23.20;63.00;;;;;;5074235;28;20196;-68
2023/06/25 04:09:16;;;;;;;4.00;3.60;;;23.20;63.00;;;;;;5107766;28;20208;-70
2023/06/25 04:11:42;;;;;;;3.38;3.17;;;23.20;63.00;;;;;;5091534;28;20200;-68
2023/06/25 04:14:08;;;;;;;3.65;3.38;;;23.20;63.00;;;;;;5090946;28;20634;-68
2023/06/25 04:16:34;;;;;;;3.80;3.50;;;23.20;63.00;;;;;;5070577;28;20199;-68
2023/06/25 04:19:00;;;;;;;3.85;3.55;;;23.20;63.00;;;;;;5087284;28;20196;-68
2023/06/25 04:21:26;;;;;;;3.40;3.20;;;23.20;63.10;;;;;;5073522;28;20177;-68
2023/06/25 04:23:52;;;;;;;3.67;3.38;;;23.20;63.00;;;;;;5090685;28;20211;-68
2023/06/25 04:26:18;;;;;;;3.83;3.53;;;23.30;63.10;;;;;;5099014;28;20196;-69
2023/06/25 04:28:43;;;;;;;4.00;3.70;;;23.30;63.10;;;;;;5081785;28;20223;-69
2023/06/25 04:31:10;;;;;;;3.35;3.15;;;23.20;63.00;;;;;;5073830;28;20177;-69
2023/06/25 04:33:41;;;;;;;3.50;3.22;;;23.20;63.10;;;;;;5098536;28;20635;-68
2023/06/25 04:36:10;;;;;;;3.08;2.88;;;23.20;63.10;;;;;;5090404;28;20181;-68
2023/06/25 04:38:36;;;;;;;3.92;3.63;;;23.20;63.10;;;;;;5078250;28;20176;-68
2023/06/25 04:41:03;;;;;;;3.70;3.45;;;23.20;63.10;;;;;;5102221;28;20187;-68
2023/06/25 04:43:29;;;;;;;3.58;3.28;;;23.20;63.10;;;;;;5085253;28;20205;-68
2023/06/25 04:45:57;;;;;;;3.95;3.65;;;23.20;63.10;;;;;;5098407;28;20188;-68
2023/06/25 04:48:23;;;;;;;3.80;3.50;;;23.20;63.10;;;;;;5092020;28;20192;-68
2023/06/25 04:50:49;;;;;;;3.80;3.50;;;23.20;63.00;;;;;;5078916;28;20339;-69
2023/06/25 04:53:15;;;;;;;3.58;3.28;;;23.20;63.10;;;;;;5072179;28;20631;-69
2023/06/25 04:55:41;;;;;;;3.55;3.25;;;23.20;63.00;;;;;;5090130;28;20181;-69
2023/06/25 04:58:06;;;;;;;4.03;3.60;;;23.20;63.00;;;;;;5098552;28;20181;-68
2023/06/25 05:00:32;;;;;;;3.78;3.47;;;23.20;63.00;;;;;;5088566;28;20237;-69
2023/06/25 05:02:58;;;;;;;3.60;3.30;;;23.20;63.00;;;;;;5089540;28;20686;-69
2023/06/25 05:05:23;;;;;;;3.20;3.00;;;23.20;63.00;;;;;;5097292;28;20197;-68
2023/06/25 05:07:49;;;;;;;3.75;3.45;;;23.20;63.00;;;;;;5095205;28;20184;-68
2023/06/25 05:10:16;;;;;;;3.85;3.55;;;23.20;63.00;;;;;;5095656;28;20681;-69
2023/06/25 05:12:41;;;;;;;3.63;3.42;;;23.20;63.00;;;;;;5101769;28;20211;-69
2023/06/25 05:15:08;;;;;;;4.00;3.60;;;23.20;63.10;;;;;;5077036;28;20200;-69
2023/06/25 05:17:33;;;;;;;3.45;3.15;;;23.20;63.00;;;;;;5093900;28;20305;-69
2023/06/25 05:19:59;;;;;;;3.65;3.35;;;23.20;63.10;;;;;;5074058;28;20189;-69
2023/06/25 05:22:25;;;;;;;3.50;3.20;;;23.20;63.10;;;;;;5109649;28;20596;-69
2023/06/25 05:24:51;;;;;;;3.45;3.15;;;23.20;63.10;;;;;;5077435;28;20189;-69
2023/06/25 05:27:17;;;;;;;4.05;3.72;;;23.20;63.10;;;;;;5085162;28;20200;-70
2023/06/25 05:29:42;;;;;;;3.35;3.10;;;23.20;63.10;;;;;;5079805;28;20212;-70
2023/06/25 05:32:08;;;;;;;3.63;3.33;;;23.10;63.00;;;;;;5093393;28;20216;-69
2023/06/25 05:34:34;;;;;;;3.83;3.53;;;23.20;63.10;;;;;;5093894;28;20199;-71
2023/06/25 05:36:59;;;;;;;3.70;3.40;;;23.20;63.10;;;;;;5101325;28;20180;-69
2023/06/25 05:39:28;;;;;;;3.63;3.33;;;23.20;63.10;;;;;;5111490;27;20181;-69
2023/06/25 05:41:58;;;;;;;3.55;3.30;;;23.20;63.10;;;;;;5086086;28;20612;-70
2023/06/25 05:44:26;;;;;;;4.07;3.78;;;23.20;63.20;;;;;;5093324;28;20199;-70
2023/06/25 05:46:51;;;;;;;3.72;3.42;;;23.20;63.10;;;;;;5101051;28;20216;-69
2023/06/25 05:49:17;;;;;;;3.88;3.58;;;23.20;63.10;;;;;;5075378;28;20264;-70
2023/06/25 05:51:43;;;;;;;3.67;3.30;;;23.20;63.00;;;;;;5075081;28;20201;-69
2023/06/25 05:54:09;;;;;;;3.38;3.10;;;23.20;63.00;;;;;;5073105;28;20666;-69
2023/06/25 05:56:35;;;;;;;3.60;3.30;;;23.20;63.00;;;;;;5086458;28;20188;-69
2023/06/25 05:59:01;;;;;;;3.80;3.47;;;23.20;62.90;;;;;;5084043;28;20194;-70
2023/06/25 06:01:27;;;;;;;3.97;3.67;;;23.20;63.00;;;;;;5088649;28;20242;-69
2023/06/25 06:03:52;;;;;;;3.53;3.22;;;23.20;62.90;;;;;;5074427;28;20196;-70
2023/06/25 06:06:18;;;;;;;3.95;3.65;;;23.20;62.90;;;;;;5074744;28;20192;-69
2023/06/25 06:08:44;;;;;;;4.25;3.72;;;23.20;62.80;;;;;;5087684;28;20240;-70
2023/06/25 06:11:10;;;;;;;4.53;4.13;;;23.00;74.80;;;;;;5074250;28;20262;-70
2023/06/25 06:13:37;;;;;;;6.05;4.57;;;22.80;60.20;;;;;;5090575;28;20209;-69
2023/06/25 06:16:03;;;;;;;5.10;4.60;;;22.70;60.20;;;;;;5074399;28;20185;-70
2023/06/25 06:18:29;;;;;;;5.63;4.72;;;22.60;60.00;;;;;;5071136;28;20193;-70
2023/06/25 06:20:55;;;;;;;5.13;4.63;;;22.50;60.00;;;;;;5090541;28;20181;-70
2023/06/25 06:23:20;;;;;;;11.45;5.03;;;22.50;59.70;;;;;;5083099;28;20205;-69
2023/06/25 06:25:46;;;;;;;5.38;4.57;;;22.50;59.80;;;;;;5089758;28;20214;-69
2023/06/25 06:28:12;;;;;;;5.32;4.80;;;22.60;60.10;;;;;;5068967;28;20185;-70
2023/06/25 06:30:37;;;;;;;4.90;4.50;;;22.60;60.00;;;;;;5083451;28;20188;-69
2023/06/25 06:33:03;;;;;;;4.78;4.38;;;22.60;60.00;;;;;;5080320;28;20211;-69
2023/06/25 06:35:29;;;;;;;4.63;4.22;;;22.60;60.00;;;;;;5084663;28;20258;-70
2023/06/25 06:37:55;;;;;;;4.80;4.40;;;22.70;60.50;;;;;;5076552;28;20187;-69
2023/06/25 06:40:21;;;;;;;4.53;4.13;;;22.80;60.20;;;;;;5106903;28;20201;-69
2023/06/25 06:42:46;;;;;;;7.05;4.60;;;22.90;60.50;;;;;;5098657;28;20209;-70
2023/06/25 06:45:12;;;;;;;5.45;4.68;;;23.00;60.40;;;;;;5073065;28;20195;-70
2023/06/25 06:47:38;;;;;;;4.15;3.85;;;23.00;60.50;;;;;;5083833;28;20188;-70
2023/06/25 06:50:06;;;;;;;5.35;4.45;;;22.90;59.90;;;;;;5099473;28;20265;-70
2023/06/25 06:52:32;;;;;;;4.32;3.92;;;22.90;59.90;;;;;;5100663;28;20201;-69
2023/06/25 06:54:57;;;;;;;5.78;4.30;;;22.90;60.70;;;;;;5068681;28;20227;-70
2023/06/25 06:57:23;;;;;;;4.32;3.95;;;23.10;61.00;;;;;;5090390;28;20180;-70
2023/06/25 06:59:49;;;;;;;5.20;4.20;;;23.10;61.10;;;;;;5070968;28;20568;-70
2023/06/25 07:02:15;;;;;;;4.90;4.40;;;23.20;61.50;;;;;;5059227;28;20267;-70
2023/06/25 07:04:40;;;;;;;4.80;4.38;;;23.20;61.60;;;;;;5087268;28;20196;-70
2023/06/25 07:07:06;;;;;;;7.35;4.70;;;23.20;61.80;;;;;;5089352;28;20181;-70
2023/06/25 07:09:32;;;;;;;6.28;4.20;;;23.30;62.00;;;;;;5089624;28;20626;-70
2023/06/25 07:11:58;;;;;;;7.20;4.40;;;23.30;62.10;;;;;;5090500;28;20204;-70
2023/06/25 07:14:24;;;;;;;4.95;4.43;;;23.30;62.30;;;;;;5074233;28;20181;-70
2023/06/25 07:16:50;;;;;;;5.68;4.07;;;23.40;62.60;;;;;;5090647;28;20187;-69
2023/06/25 07:19:15;;;;;;;5.82;4.05;;;23.30;62.60;;;;;;5074041;28;20185;-70
2023/06/25 07:21:41;;;;;;;7.93;4.63;;;23.30;62.70;;;;;;5073766;28;20674;-70
2023/06/25 07:24:07;;;;;;;4.43;4.03;;;23.30;62.80;;;;;;5091162;28;20188;-69
2023/06/25 07:26:33;;;;;;;4.65;4.25;;;23.40;63.00;;;;;;5090797;28;20268;-69
2023/06/25 07:28:59;;;;;;;4.15;3.75;;;23.40;63.10;;;;;;5071954;28;20232;-70
2023/06/25 07:31:24;;;;;;;5.03;4.53;;;23.40;63.10;;;;;;5107315;28;20218;-70
2023/06/25 07:33:50;;;;;;;4.45;4.05;;;23.50;63.30;;;;;;5085572;28;20694;-70
2023/06/25 07:36:17;;;;;;;4.18;3.70;;;23.50;64.10;;;;;;5087564;28;20177;-70
2023/06/25 07:38:43;;;;;;;4.03;3.72;;;23.40;63.30;;;;;;5073642;28;20288;-70
2023/06/25 07:41:09;;;;;;;4.03;3.53;;;23.50;63.30;;;;;;5090115;28;20195;-70
2023/06/25 07:43:35;;;;;;;5.40;4.13;;;23.50;63.30;;;;;;5072880;28;20299;-70
2023/06/25 07:46:00;;;;;;;4.22;3.90;;;23.50;63.30;;;;;;5090677;28;20200;-70
2023/06/25 07:48:26;;;;;;;4.95;4.30;;;23.50;63.40;;;;;;5073382;28;20203;-70
2023/06/25 07:50:52;;;;;;;4.40;4.00;;;23.60;63.40;;;;;;5091910;28;20185;-70
2023/06/25 07:53:18;;;;;;;3.95;3.65;;;23.50;63.50;;;;;;5071667;28;20208;-70
2023/06/25 07:55:45;;;;;;;4.57;4.13;;;23.60;63.40;;;;;;5102783;28;20188;-70
2023/06/25 07:58:11;;;;;;;4.28;3.78;;;23.60;63.60;;;;;;5127613;27;20216;-70
2023/06/25 08:00:37;;;;;;;4.78;4.20;;;23.60;63.50;;;;;;5081850;28;20235;-70
2023/06/25 08:03:03;;;;;;;4.57;4.18;;;23.60;63.40;;;;;;5096493;28;20200;-70
2023/06/25 08:05:29;;;;;;;4.03;3.63;;;23.60;63.60;;;;;;5091344;28;20197;-70
2023/06/25 08:07:58;;;;;;;4.07;3.78;;;23.60;63.50;;;;;;5099572;28;20216;-70
2023/06/25 08:10:24;;;;;;;3.90;3.60;;;23.60;63.60;;;;;;5072719;28;20220;-70
2023/06/25 08:12:53;;;;;;;4.20;3.90;;;23.60;63.70;;;;;;5094296;28;20217;-69
2023/06/25 08:15:20;;;;;;;4.50;3.83;;;23.60;63.70;;;;;;5109552;28;20205;-70
2023/06/25 08:17:47;;;;;;;4.68;4.20;;;23.60;63.60;;;;;;5081415;28;20172;-70
2023/06/25 08:20:13;;;;;;;4.45;4.00;;;23.70;63.50;;;;;;5089203;28;20189;-70
2023/06/25 08:22:39;;;;;;;4.70;4.30;;;23.70;63.60;;;;;;5091105;28;20201;-70
2023/06/25 08:25:20;;;;;;;4.07;3.45;;;23.70;63.50;;;;;;5073897;28;20287;-70
2023/06/25 08:27:46;;;;;;;4.20;3.85;;;23.70;63.50;;;;;;5090842;28;20188;-69
2023/06/25 08:30:12;;;;;;;4.10;3.80;;;23.70;63.70;;;;;;5089829;28;20220;-70
2023/06/25 08:32:38;;;;;;;3.90;3.60;;;23.70;63.40;;;;;;5097228;28;20268;-69
2023/06/25 08:35:04;;;;;;;4.63;3.80;;;23.70;63.30;;;;;;5096317;28;20184;-70
2023/06/25 08:37:30;;;;;;;3.88;3.58;;;23.80;63.60;;;;;;5082349;28;20184;-70
2023/06/25 08:39:56;;;;;;;4.00;3.63;;;23.70;63.30;;;;;;5094358;28;20676;-70
2023/06/25 08:42:22;;;;;;;4.15;3.75;;;23.70;63.50;;;;;;5117019;27;20721;-70
2023/06/25 08:44:47;;;;;;;4.15;3.75;;;23.80;63.40;;;;;;5072646;28;20184;-69
2023/06/25 08:47:19;;;;;;;4.00;3.70;;;23.80;63.50;;;;;;5072382;28;20185;-70
2023/06/25 08:49:49;;;;;;;4.15;3.75;;;23.80;63.40;;;;;;5086397;28;20207;-70
2023/06/25 08:52:18;;;;;;;4.07;3.78;;;23.80;63.40;;;;;;5093836;28;20205;-70
2023/06/25 08:54:45;;;;;;;3.97;3.65;;;23.80;63.50;;;;;;5072664;28;20181;-70
2023/06/25 08:57:11;;;;;;;4.22;3.85;;;23.90;63.80;;;;;;5088334;28;20558;-70
2023/06/25 08:59:37;;;;;;;4.57;4.18;;;23.90;63.70;;;;;;5101230;28;20661;-70
2023/06/25 09:02:03;;;;;;;4.30;3.90;;;23.90;63.80;;;;;;5077341;28;20263;-70
2023/06/25 09:04:29;;;;;;;4.25;3.85;;;23.90;63.80;;;;;;5107297;28;20198;-70
2023/06/25 09:06:55;;;;;;;4.10;3.70;;;23.90;63.60;;;;;;5087189;28;20564;-70
2023/06/25 09:09:21;;;;;;;3.95;3.65;;;23.90;63.60;;;;;;5089312;28;20690;-70
2023/06/25 09:11:46;;;;;;;4.00;3.70;;;23.90;64.30;;;;;;5096975;28;20215;-69
2023/06/25 09:14:12;;;;;;;4.32;3.65;;;23.90;63.60;;;;;;5105306;28;20190;-70
2023/06/25 09:16:46;;;;;;;4.13;3.83;;;23.90;63.70;;;;;;5073137;28;20197;-70
2023/06/25 09:19:19;;;;;;;4.05;3.55;;;23.90;63.70;;;;;;5089147;28;20598;-70
2023/06/25 09:21:46;;;;;;;4.15;3.83;;;23.90;63.50;;;;;;5088490;28;20213;-70
2023/06/25 09:24:18;;;;;;;4.30;3.92;;;24.00;63.80;;;;;;5097716;28;20181;-70
2023/06/25 09:26:52;;;;;;;4.30;4.00;;;24.00;63.70;;;;;;5075674;28;20180;-70
2023/06/25 09:29:21;;;;;;;4.03;3.72;;;23.90;63.50;;;;;;5082611;28;20212;-70
2023/06/25 09:31:48;;;;;;;4.13;3.83;;;24.00;63.60;;;;;;5123140;28;20208;-70
2023/06/25 09:34:17;;;;;;;4.10;3.72;;;23.90;63.60;;;;;;5100897;28;20172;-70
2023/06/25 09:36:44;;;;;;;3.65;3.35;;;23.90;63.70;;;;;;5097273;28;20241;-70
2023/06/25 09:39:12;;;;;;;4.00;3.60;;;24.00;63.80;;;;;;5088136;28;20275;-70
2023/06/25 09:41:43;;;;;;;3.70;3.40;;;23.90;63.70;;;;;;5096876;28;20224;-70
2023/06/25 09:44:10;;;;;;;3.90;3.60;;;24.00;63.80;;;;;;5095908;28;20574;-70
2023/06/25 09:46:40;;;;;;;3.60;3.30;;;24.00;63.60;;;;;;5090194;28;20192;-70
2023/06/25 09:49:09;;;;;;;3.88;3.58;;;24.00;63.70;;;;;;5071938;28;20299;-70
2023/06/25 09:52:02;;;;;;;4.03;3.72;;;24.00;63.60;;;;;;5083934;28;20228;-70
2023/06/25 09:54:30;;;;;;;4.18;3.80;;;24.00;63.70;;;;;;5121399;27;20181;-70
2023/06/25 09:57:03;;;;;;;3.88;3.58;;;24.00;63.50;;;;;;5097344;28;20179;-69
2023/06/25 09:59:29;;;;;;;3.78;3.47;;;24.00;63.60;;;;;;5078875;28;20189;-70
2023/06/25 10:01:55;;;;;;;4.13;3.83;;;24.00;63.60;;;;;;5107161;28;20215;-69
2023/06/25 10:04:22;;;;;;;3.83;3.53;;;24.10;63.60;;;;;;5083876;28;20205;-70
2023/06/25 10:06:49;;;;;;;4.10;3.70;;;24.00;63.70;;;;;;5095870;28;20245;-70
2023/06/25 10:09:14;;;;;;;3.70;3.40;;;24.00;63.70;;;;;;5112623;28;20374;-70
2023/06/25 10:11:56;;;;;;;3.92;3.63;;;24.00;63.90;;;;;;5118137;27;20733;-70
2023/06/25 10:14:23;;;;;;;4.15;3.85;;;24.00;64.00;;;;;;5075263;28;20289;-69
2023/06/25 10:16:55;;;;;;;3.60;3.30;;;24.00;63.90;;;;;;5095899;28;20176;-70
2023/06/25 10:19:26;;;;;;;4.15;3.75;;;24.00;63.70;;;;;;5105562;28;20196;-70
2023/06/25 10:22:12;;;;;;;4.32;3.83;;;24.00;63.70;;;;;;5090583;28;20215;-70
2023/06/25 10:24:51;;;;;;;3.67;3.38;;;24.00;63.90;;;;;;5083299;28;20184;-70
2023/06/25 10:27:24;;;;;;;3.90;3.60;;;24.00;63.60;;;;;;5091721;28;20216;-70
2023/06/25 10:29:54;;;;;;;3.50;3.28;;;24.10;63.60;;;;;;5073772;28;20208;-69
2023/06/25 10:32:28;;;;;;;3.83;3.53;;;24.10;63.70;;;;;;5099504;28;20767;-69
2023/06/25 10:34:59;;;;;;;3.70;3.40;;;24.10;63.90;;;;;;5096964;28;20180;-70
2023/06/25 10:37:34;;;;;;;3.72;3.42;;;24.10;63.70;;;;;;5103144;28;20191;-70
2023/06/25 10:40:09;;;;;;;4.05;3.75;;;24.10;64.00;;;;;;5100280;28;20189;-70
2023/06/25 10:42:36;;;;;;;3.58;3.28;;;24.10;64.10;;;;;;5082656;28;20211;-70
2023/06/25 10:45:07;;;;;;;3.83;3.53;;;24.10;64.00;;;;;;5082384;28;20271;-70
2023/06/25 10:47:34;;;;;;;4.30;4.00;;;24.10;64.10;;;;;;5111440;28;20196;-70
2023/06/25 10:49:59;;;;;;;4.18;3.88;;;24.10;64.00;;;;;;5091329;28;20749;-70
2023/06/25 10:52:25;;;;;;;4.20;3.80;;;24.10;64.00;;;;;;5082342;28;20295;-69
2023/06/25 10:54:55;;;;;;;4.00;3.70;;;24.10;63.80;;;;;;5104766;28;20176;-70
2023/06/25 10:57:20;;;;;;;4.40;4.10;;;24.10;64.00;;;;;;5103226;28;20203;-70
2023/06/25 10:59:48;;;;;;;3.70;3.40;;;24.10;63.60;;;;;;5100136;28;20188;-70
2023/06/25 11:02:20;;;;;;;3.83;3.53;;;24.10;63.50;;;;;;5089787;28;20205;-70
2023/06/25 11:04:55;;;;;;;3.72;3.42;;;24.10;63.70;;;;;;5074495;28;20288;-70
2023/06/25 11:07:22;;;;;;;4.20;3.90;;;24.10;63.70;;;;;;5083005;28;20569;-70
2023/06/25 11:09:55;;;;;;;3.70;3.40;;;24.10;63.40;;;;;;5091186;28;20231;-69
2023/06/25 11:12:21;;;;;;;3.95;3.60;;;24.10;63.70;;;;;;5089749;28;20208;-70
2023/06/25 11:14:47;;;;;;;3.50;3.30;;;24.10;63.60;;;;;;5091406;28;20206;-70
2023/06/25 11:17:15;;;;;;;3.80;3.50;;;24.10;63.70;;;;;;5091090;28;20263;-70
2023/06/25 11:19:41;;;;;;;4.03;3.72;;;24.10;63.50;;;;;;5089507;28;20197;-70
2023/06/25 11:22:10;;;;;;;3.83;3.53;;;24.10;63.60;;;;;;5090329;28;20210;-70
2023/06/25 11:24:37;;;;;;;3.92;3.63;;;24.10;63.70;;;;;;5090987;28;20193;-70
2023/06/25 11:27:04;;;;;;;4.32;4.00;;;24.10;63.90;;;;;;5090728;28;20284;-70
2023/06/25 11:29:40;;;;;;;4.07;3.75;;;24.10;63.70;;;;;;5072337;28;20208;-70
2023/06/25 11:32:09;;;;;;;3.85;3.55;;;24.10;63.80;;;;;;5073198;28;20205;-70
2023/06/25 11:34:44;;;;;;;3.85;3.55;;;24.20;63.20;;;;;;5089652;28;20288;-70
2023/06/25 11:37:15;;;;;;;3.90;3.60;;;24.10;63.70;;;;;;5090397;28;20185;-70
2023/06/25 11:39:50;;;;;;;4.20;3.90;;;24.10;63.50;;;;;;5090716;28;20197;-70
2023/06/25 11:42:24;;;;;;;4.13;3.58;;;24.10;63.70;;;;;;5073206;28;20307;-70
2023/06/25 11:45:18;;;;;;;4.13;3.72;;;24.10;63.60;;;;;;5073866;28;20191;-70
2023/06/25 11:47:56;;;;;;;3.70;3.40;;;24.10;63.70;;;;;;5087825;28;20292;-71
2023/06/25 11:50:23;;;;;;;3.97;3.67;;;24.10;63.70;;;;;;5090547;28;20212;-70
2023/06/25 11:52:55;;;;;;;3.72;3.42;;;24.10;64.60;;;;;;5072768;28;20197;-70
2023/06/25 11:55:21;;;;;;;4.07;3.78;;;24.10;63.70;;;;;;5085926;28;20177;-70
2023/06/25 11:57:48;;;;;;;4.10;3.80;;;24.20;63.70;;;;;;5091307;28;20194;-70
2023/06/25 12:00:15;;;;;;;4.03;3.72;;;24.20;63.70;;;;;;5073174;28;20666;-70
2023/06/25 12:02:41;;;;;;;3.90;3.60;;;24.20;63.50;;;;;;5098708;28;20208;-70
2023/06/25 12:05:07;;;;;;;4.63;4.22;;;24.20;63.60;;;;;;5087776;28;20202;-70
2023/06/25 12:07:33;;;;;;;3.92;3.63;;;24.20;63.60;;;;;;5118799;27;20215;-70
2023/06/25 12:09:59;;;;;;;4.00;3.70;;;24.20;63.60;;;;;;5077361;28;20208;-71
2023/06/25 12:12:25;;;;;;;3.90;3.60;;;24.20;63.60;;;;;;5102248;28;20217;-70
2023/06/25 12:14:52;;;;;;;3.92;3.63;;;24.20;63.50;;;;;;5092939;28;20180;-70
2023/06/25 12:17:17;;;;;;;3.67;3.38;;;24.20;63.60;;;;;;5119270;27;20738;-70
2023/06/25 12:19:43;;;;;;;4.03;3.72;;;24.20;63.60;;;;;;5106845;27;20271;-70
2023/06/25 12:22:09;;;;;;;3.55;3.30;;;24.20;63.60;;;;;;5102021;28;20208;-70
2023/06/25 12:24:35;;;;;;;4.13;3.83;;;24.20;63.70;;;;;;5106976;28;20199;-70
2023/06/25 12:27:02;;;;;;;3.58;3.28;;;24.20;63.70;;;;;;5102729;28;20270;-70
2023/06/25 12:29:28;;;;;;;3.65;3.35;;;24.20;63.80;;;;;;5091627;28;20277;-69
2023/06/25 12:31:54;;;;;;;3.92;3.53;;;24.20;63.70;;;;;;5100897;28;20689;-70
2023/06/25 12:34:19;;;;;;;4.30;4.00;;;24.20;63.80;;;;;;5093479;28;20275;-70
2023/06/25 12:36:45;;;;;;;4.03;3.65;;;24.20;63.80;;;;;;5100808;28;20225;-70
2023/06/25 12:39:11;;;;;;;4.03;3.72;;;24.20;63.80;;;;;;5089630;28;20180;-70
2023/06/25 12:41:37;;;;;;;4.15;3.85;;;24.20;64.00;;;;;;5089093;28;20221;-70
2023/06/25 12:44:02;;;;;;;4.22;3.92;;;24.20;64.10;;;;;;5090473;28;20189;-70
2023/06/25 12:46:29;;;;;;;4.20;3.90;;;24.20;63.90;;;;;;5081260;28;20197;-70
2023/06/25 12:48:55;;;;;;;4.15;3.85;;;24.20;64.20;;;;;;5100989;28;20583;-70